createdAt,value
2019-05-02T00:02:24.113Z,101262.16
2019-05-02T00:04:55.917Z,101258.28
2019-05-02T00:07:25.031Z,101255.52
2019-05-02T00:09:54.742Z,101247.54
2019-05-02T00:12:25.593Z,101244.98
2019-05-02T00:14:56.640Z,101248.38
2019-05-02T00:17:27.546Z,101245.88
2019-05-02T00:19:56.834Z,101244.48
2019-05-02T00:22:26.114Z,101241.24
2019-05-02T00:24:55.422Z,101239.89
2019-05-02T00:27:24.725Z,101247.79
2019-05-02T00:29:58.514Z,101240.70
2019-05-02T00:32:25.042Z,101247.59
2019-05-02T00:34:54.420Z,101236.41
2019-05-02T00:37:24.638Z,101239.80
2019-05-02T00:39:54.783Z,101235.85
2019-05-02T00:42:24.222Z,101237.11
2019-05-02T00:44:53.442Z,101235.30
2019-05-02T00:47:42.342Z,101230.88
2019-05-02T00:50:11.285Z,101234.34
2019-05-02T00:52:41.451Z,101232.19
2019-05-02T00:55:10.849Z,101225.18
2019-05-02T00:57:40.147Z,101221.50
2019-05-02T01:00:13.352Z,101222.17
2019-05-02T01:02:47.182Z,101217.48
2019-05-02T01:05:16.447Z,101217.89
2019-05-02T01:07:45.765Z,101210.13
2019-05-02T01:10:17.241Z,101211.84
2019-05-02T01:12:46.269Z,101210.48
2019-05-02T01:15:15.691Z,101211.02
2019-05-02T01:17:45.011Z,101204.39
2019-05-02T01:20:14.304Z,101205.66
2019-05-02T01:22:47.246Z,101205.55
2019-05-02T01:25:15.691Z,101207.24
2019-05-02T01:28:03.466Z,101207.36
2019-05-02T01:30:57.554Z,101202.85
2019-05-02T01:33:56.805Z,101204.13
2019-05-02T01:36:30.461Z,101202.85
2019-05-02T01:39:02.884Z,101199.80
2019-05-02T01:41:31.108Z,101204.16
2019-05-02T01:44:01.640Z,101196.67
2019-05-02T01:46:30.886Z,101191.80
2019-05-02T01:49:00.186Z,101187.80
2019-05-02T01:51:29.456Z,101192.77
2019-05-02T01:53:58.763Z,101187.72
2019-05-02T01:56:28.594Z,101193.35
2019-05-02T01:58:59.003Z,101186.78
2019-05-02T02:01:28.437Z,101185.01
2019-05-02T02:03:57.682Z,101185.40
2019-05-02T02:06:26.964Z,101184.58
2019-05-02T02:08:56.222Z,101183.28
2019-05-02T02:11:28.436Z,101181.18
2019-05-02T02:13:56.643Z,101177.66
2019-05-02T02:16:25.968Z,101178.88
2019-05-02T02:19:05.404Z,101179.30
2019-05-02T02:21:47.601Z,101175.95
2019-05-02T02:24:25.121Z,101184.25
2019-05-02T02:26:55.379Z,101188.09
2019-05-02T02:29:24.798Z,101181.18
2019-05-02T02:31:54.126Z,101179.53
2019-05-02T02:34:29.107Z,101171.91
2019-05-02T02:36:54.527Z,101171.92
2019-05-02T02:39:23.837Z,101162.78
2019-05-02T02:41:54.216Z,101168.09
2019-05-02T02:44:41.983Z,101163.74
2019-05-02T02:47:18.891Z,101164.97
2019-05-02T02:49:42.387Z,101161.78
2019-05-02T02:52:11.679Z,101166.02
2019-05-02T02:54:43.200Z,101162.01
2019-05-02T02:57:20.631Z,101162.05
2019-05-02T02:59:42.978Z,101158.99
2019-05-02T03:02:12.574Z,101161.19
2019-05-02T03:04:44.164Z,101158.60
2019-05-02T03:07:24.193Z,101165.19
2019-05-02T03:09:44.100Z,101152.48
2019-05-02T03:12:36.215Z,101156.39
2019-05-02T03:15:03.868Z,101151.87
2019-05-02T03:17:33.131Z,101147.16
2019-05-02T03:20:03.910Z,101141.11
2019-05-02T03:22:34.924Z,101141.09
2019-05-02T03:25:04.667Z,101146.33
2019-05-02T03:27:37.502Z,101145.45
2019-05-02T03:30:05.122Z,101140.45
2019-05-02T03:32:36.145Z,101141.02
2019-05-02T03:35:05.535Z,101145.02
2019-05-02T03:37:34.801Z,101142.00
2019-05-02T03:40:04.625Z,101140.27
2019-05-02T03:42:43.677Z,101146.84
2019-05-02T03:45:05.572Z,101146.34
2019-05-02T03:47:36.938Z,101136.28
2019-05-02T03:50:09.458Z,101143.72
2019-05-02T03:52:43.675Z,101131.86
2019-05-02T03:55:08.891Z,101141.02
2019-05-02T03:57:41.878Z,101135.22
2019-05-02T04:00:13.564Z,101133.91
2019-05-02T04:02:41.169Z,101134.02
2019-05-02T04:05:10.689Z,101126.48
2019-05-02T04:07:42.122Z,101124.83
2019-05-02T04:10:19.649Z,101123.47
2019-05-02T04:12:45.647Z,101121.25
2019-05-02T04:15:15.062Z,101122.07
2019-05-02T04:17:44.833Z,101118.73
2019-05-02T04:20:14.163Z,101117.83
2019-05-02T04:22:49.097Z,101123.45
2019-05-02T04:25:14.883Z,101118.62
2019-05-02T04:27:44.279Z,101124.86
2019-05-02T04:30:14.194Z,101131.13
2019-05-02T04:32:49.564Z,101124.11
2019-05-02T04:35:14.864Z,101133.28
2019-05-02T04:37:44.099Z,101133.92
2019-05-02T04:40:13.372Z,101132.30
2019-05-02T04:42:42.603Z,101120.67
2019-05-02T04:45:25.232Z,101131.05
2019-05-02T04:47:42.859Z,101118.11
2019-05-02T04:50:18.144Z,101108.64
2019-05-02T04:52:48.393Z,101106.21
2019-05-02T04:55:22.936Z,101101.87
2019-05-02T04:57:50.486Z,101103.19
2019-05-02T05:00:20.490Z,101106.28
2019-05-02T05:02:52.947Z,101108.32
2019-05-02T05:05:25.644Z,101111.02
2019-05-02T05:07:51.760Z,101118.59
2019-05-02T05:10:21.053Z,101123.12
2019-05-02T05:12:50.644Z,101122.29
2019-05-02T05:15:35.826Z,101124.42
2019-05-02T05:17:50.928Z,101123.30
2019-05-02T05:20:20.297Z,101121.63
2019-05-02T05:22:49.592Z,101128.02
2019-05-02T05:25:24.396Z,101126.06
2019-05-02T05:27:58.712Z,101123.11
2019-05-02T05:30:24.763Z,101130.22
2019-05-02T05:32:54.242Z,101124.62
2019-05-02T05:35:23.551Z,101132.14
2019-05-02T05:37:53.399Z,101124.80
2019-05-02T05:40:27.567Z,101126.43
2019-05-02T05:42:53.809Z,101133.09
2019-05-02T05:45:23.306Z,101125.04
2019-05-02T05:47:57.487Z,101120.72
2019-05-02T05:50:23.623Z,101126.20
2019-05-02T05:52:52.981Z,101130.60
2019-05-02T05:55:24.430Z,101126.66
2019-05-02T05:57:59.966Z,101122.63
2019-05-02T06:00:24.305Z,101118.41
2019-05-02T06:03:01.404Z,101124.47
2019-05-02T06:05:24.735Z,101122.05
2019-05-02T06:07:54.110Z,101122.38
2019-05-02T06:10:23.350Z,101121.93
2019-05-02T06:12:52.720Z,101117.20
2019-05-02T06:15:21.962Z,101118.57
2019-05-02T06:17:51.325Z,101114.62
2019-05-02T06:20:20.613Z,101122.13
2019-05-02T06:22:49.860Z,101117.31
2019-05-02T06:25:32.818Z,101104.61
2019-05-02T06:27:51.661Z,101104.67
2019-05-02T06:30:21.043Z,101103.83
2019-05-02T06:32:55.054Z,101099.44
2019-05-02T06:35:22.399Z,101105.49
2019-05-02T06:37:52.072Z,101098.56
2019-05-02T06:40:21.291Z,101095.50
2019-05-02T06:42:50.573Z,101095.04
2019-05-02T06:45:20.012Z,101088.04
2019-05-02T06:47:49.327Z,101091.14
2019-05-02T06:50:18.672Z,101094.21
2019-05-02T06:52:47.990Z,101090.72
2019-05-02T06:55:17.311Z,101089.38
2019-05-02T06:57:46.614Z,101097.70
2019-05-02T07:00:16.782Z,101095.06
2019-05-02T07:02:46.035Z,101095.52
2019-05-02T07:05:15.469Z,101089.72
2019-05-02T07:07:44.804Z,101086.50
2019-05-02T07:10:14.390Z,101090.16
2019-05-02T07:12:46.145Z,101088.20
2019-05-02T07:15:48.284Z,101094.76
2019-05-02T07:18:17.321Z,101094.16
2019-05-02T07:20:46.593Z,101095.71
2019-05-02T07:23:18.199Z,101094.98
2019-05-02T07:25:47.149Z,101099.83
2019-05-02T07:28:16.419Z,101100.12
2019-05-02T07:30:45.726Z,101095.63
2019-05-02T07:33:14.994Z,101101.95
2019-05-02T07:35:44.266Z,101097.03
2019-05-02T07:38:13.560Z,101104.27
2019-05-02T07:40:42.868Z,101107.25
2019-05-02T07:43:13.509Z,101104.25
2019-05-02T07:45:45.227Z,101105.14
2019-05-02T07:48:17.699Z,101099.97
2019-05-02T07:50:46.572Z,101098.66
2019-05-02T07:53:16.459Z,101105.94
2019-05-02T07:55:48.917Z,101104.27
2019-05-02T07:58:16.881Z,101112.36
2019-05-02T08:00:46.186Z,101107.42
2019-05-02T08:03:15.448Z,101101.27
2019-05-02T08:05:45.126Z,101102.38
2019-05-02T08:08:14.396Z,101093.41
2019-05-02T08:10:43.664Z,101099.94
2019-05-02T08:13:17.455Z,101097.54
2019-05-02T08:15:45.590Z,101099.74
2019-05-02T08:18:15.250Z,101104.47
2019-05-02T08:20:44.550Z,101101.74
2019-05-02T08:23:13.867Z,101096.14
2019-05-02T08:25:45.418Z,101105.78
2019-05-02T08:28:21.801Z,101107.72
2019-05-02T08:30:53.837Z,101096.45
2019-05-02T08:33:23.189Z,101094.06
2019-05-02T08:35:52.447Z,101086.09
2019-05-02T08:38:21.773Z,101086.41
2019-05-02T08:40:51.109Z,101092.09
2019-05-02T08:43:20.346Z,101083.95
2019-05-02T08:45:49.632Z,101087.64
2019-05-02T08:48:18.912Z,101082.33
2019-05-02T08:50:48.339Z,101082.27
2019-05-02T08:53:19.676Z,101090.88
2019-05-02T08:55:48.634Z,101087.28
2019-05-02T08:58:17.934Z,101088.12
2019-05-02T09:01:13.247Z,101086.63
2019-05-02T09:03:54.591Z,101086.88
2019-05-02T09:06:10.435Z,101080.96
2019-05-02T09:08:39.724Z,101083.67
2019-05-02T09:11:14.199Z,101079.81
2019-05-02T09:13:42.054Z,101076.33
2019-05-02T09:16:12.059Z,101077.29
2019-05-02T09:18:50.575Z,101076.99
2019-05-02T09:21:12.600Z,101066.88
2019-05-02T09:23:43.894Z,101056.88
2019-05-02T09:26:12.882Z,101060.00
2019-05-02T09:28:42.349Z,101052.53
2019-05-02T09:31:13.216Z,101040.65
2019-05-02T09:33:46.792Z,101040.20
2019-05-02T09:36:13.540Z,101032.59
2019-05-02T09:38:42.840Z,101029.33
2019-05-02T09:41:18.770Z,101031.19
2019-05-02T09:43:43.210Z,101023.33
2019-05-02T09:46:16.508Z,101035.80
2019-05-02T09:48:43.613Z,101023.45
2019-05-02T09:51:17.434Z,101017.43
2019-05-02T09:53:43.990Z,101016.90
2019-05-02T09:56:13.421Z,101014.47
2019-05-02T09:58:44.251Z,101010.45
2019-05-02T10:01:35.538Z,101013.31
2019-05-02T10:04:05.302Z,101002.98
2019-05-02T10:06:34.527Z,101002.44
2019-05-02T10:09:06.030Z,101003.66
2019-05-02T10:11:35.368Z,100996.05
2019-05-02T10:14:05.317Z,100990.16
2019-05-02T10:16:34.696Z,100986.88
2019-05-02T10:19:09.245Z,100993.91
2019-05-02T10:21:35.114Z,100995.77
2019-05-02T10:24:04.497Z,100990.00
2019-05-02T10:26:33.743Z,100986.75
2019-05-02T10:29:03.053Z,100972.14
2019-05-02T10:31:37.321Z,100977.69
2019-05-02T10:34:03.463Z,100965.53
2019-05-02T10:36:32.698Z,100974.95
2019-05-02T10:39:02.056Z,100970.11
2019-05-02T10:41:53.448Z,100964.41
2019-05-02T10:44:22.819Z,100953.77
2019-05-02T10:46:56.761Z,100954.01
2019-05-02T10:49:33.952Z,100957.57
2019-05-02T10:52:03.304Z,100946.75
2019-05-02T10:54:36.436Z,100943.45
2019-05-02T10:57:03.570Z,100938.24
2019-05-02T10:59:32.949Z,100940.18
2019-05-02T11:02:36.281Z,100937.25
2019-05-02T11:05:12.012Z,100939.45
2019-05-02T11:07:41.988Z,100934.59
2019-05-02T11:10:12.820Z,100929.47
2019-05-02T11:13:01.900Z,100929.56
2019-05-02T11:15:59.155Z,100931.12
2019-05-02T11:18:40.164Z,100930.17
2019-05-02T11:21:06.765Z,100923.08
2019-05-02T11:23:32.848Z,100923.25
2019-05-02T11:26:02.349Z,100918.42
2019-05-02T11:28:32.363Z,100919.71
2019-05-02T11:31:06.440Z,100917.90
2019-05-02T11:33:32.917Z,100908.25
2019-05-02T11:36:02.620Z,100907.53
2019-05-02T11:38:32.472Z,100906.58
2019-05-02T11:41:02.766Z,100901.86
2019-05-02T11:43:32.666Z,100900.98
2019-05-02T11:46:07.091Z,100908.23
2019-05-02T11:48:33.079Z,100899.52
2019-05-02T11:51:02.758Z,100891.35
2019-05-02T11:53:32.655Z,100892.14
2019-05-02T11:56:03.675Z,100892.92
2019-05-02T11:58:33.197Z,100889.55
2019-05-02T12:01:05.278Z,100884.28
2019-05-02T12:03:38.348Z,100888.53
2019-05-02T12:06:12.231Z,100876.32
2019-05-02T12:08:39.514Z,100886.34
2019-05-02T12:11:15.970Z,100872.55
2019-05-02T12:13:42.667Z,100874.23
2019-05-02T12:16:14.797Z,100870.59
2019-05-02T12:18:44.297Z,100871.37
2019-05-02T12:21:13.774Z,100866.68
2019-05-02T12:23:43.056Z,100854.14
2019-05-02T12:26:12.468Z,100860.55
2019-05-02T12:28:42.966Z,100858.16
2019-05-02T12:31:26.600Z,100852.05
2019-05-02T12:33:56.426Z,100847.80
2019-05-02T12:36:25.712Z,100839.53
2019-05-02T12:38:55.026Z,100843.22
2019-05-02T12:41:25.308Z,100841.23
2019-05-02T12:43:54.894Z,100841.75
2019-05-02T12:46:24.315Z,100838.13
2019-05-02T12:48:53.684Z,100838.65
2019-05-02T12:51:22.917Z,100829.13
2019-05-02T12:53:52.985Z,100835.72
2019-05-02T12:56:23.018Z,100829.52
2019-05-02T12:58:53.071Z,100828.88
2019-05-02T13:01:22.614Z,100822.27
2019-05-02T13:04:13.692Z,100817.64
2019-05-02T13:06:43.034Z,100817.45
2019-05-02T13:09:13.094Z,100815.26
2019-05-02T13:12:19.848Z,100817.58
2019-05-02T13:14:49.287Z,100809.36
2019-05-02T13:17:18.545Z,100813.69
2019-05-02T13:19:56.235Z,100809.23
2019-05-02T13:22:41.962Z,100811.65
2019-05-02T13:25:14.624Z,100807.89
2019-05-02T13:27:47.962Z,100806.82
2019-05-02T13:30:41.011Z,100803.26
2019-05-02T13:33:05.003Z,100794.16
2019-05-02T13:35:43.984Z,100797.77
2019-05-02T13:38:14.882Z,100801.09
2019-05-02T13:40:45.148Z,100800.33
2019-05-02T13:43:14.800Z,100800.66
2019-05-02T13:46:09.750Z,100797.78
2019-05-02T13:48:39.401Z,100813.77
2019-05-02T13:51:08.697Z,100822.66
2019-05-02T13:53:47.016Z,100821.19
2019-05-02T13:56:46.384Z,100824.58
2019-05-02T13:59:16.322Z,100818.16
2019-05-02T14:01:47.572Z,100826.50
2019-05-02T14:04:16.894Z,100819.81
2019-05-02T14:06:46.424Z,100824.86
2019-05-02T14:09:37.632Z,100819.27
2019-05-02T14:12:32.146Z,100814.66
2019-05-02T14:15:03.001Z,100818.09
2019-05-02T14:17:32.763Z,100821.36
2019-05-02T14:20:10.741Z,100816.22
2019-05-02T14:22:33.126Z,100813.77
2019-05-02T14:25:02.442Z,100818.18
2019-05-02T14:27:32.182Z,100811.36
2019-05-02T14:30:02.426Z,100817.94
2019-05-02T14:32:32.906Z,100805.22
2019-05-02T14:35:28.330Z,100805.00
2019-05-02T14:38:13.940Z,100793.88
2019-05-02T14:40:54.838Z,100798.03
2019-05-02T14:43:44.512Z,100797.28
2019-05-02T14:46:13.019Z,100781.89
2019-05-02T14:48:45.236Z,100785.15
2019-05-02T14:51:16.569Z,100784.86
2019-05-02T14:53:44.950Z,100782.02
2019-05-02T14:56:19.815Z,100776.09
2019-05-02T14:58:49.196Z,100778.24
2019-05-02T15:01:22.624Z,100767.69
2019-05-02T15:03:49.753Z,100766.77
2019-05-02T15:06:19.022Z,100761.30
2019-05-02T15:08:48.416Z,100765.72
2019-05-02T15:11:17.729Z,100760.68
2019-05-02T15:13:47.020Z,100757.67
2019-05-02T15:16:17.765Z,100752.33
2019-05-02T15:18:52.063Z,100755.83
2019-05-02T15:21:22.799Z,100755.22
2019-05-02T15:23:54.224Z,100757.09
2019-05-02T15:26:26.258Z,100762.78
2019-05-02T15:28:54.352Z,100759.41
2019-05-02T15:31:31.600Z,100761.72
2019-05-02T15:34:06.801Z,100761.02
2019-05-02T15:36:37.121Z,100775.77
2019-05-02T15:41:44.925Z,100796.11
2019-05-02T15:44:12.756Z,100792.28
2019-05-02T15:46:42.487Z,100791.14
2019-05-02T15:49:12.360Z,100789.54
2019-05-02T15:51:43.658Z,100783.48
2019-05-02T15:54:13.070Z,100791.66
2019-05-02T15:57:00.316Z,100791.98
2019-05-02T15:59:46.197Z,100799.87
2019-05-02T16:02:17.702Z,100796.90
2019-05-02T16:04:47.823Z,100791.94
2019-05-02T16:07:17.139Z,100792.23
2019-05-02T16:09:46.443Z,100788.84
2019-05-02T16:12:15.808Z,100789.63
2019-05-02T16:14:45.173Z,100796.17
2019-05-02T16:17:17.641Z,100792.58
2019-05-02T16:19:53.124Z,100790.84
2019-05-02T16:22:23.633Z,100795.53
2019-05-02T16:24:53.478Z,100802.27
2019-05-02T16:27:42.147Z,100795.19
2019-05-02T16:30:13.402Z,100784.24
2019-05-02T16:32:46.539Z,100790.59
2019-05-02T16:35:17.554Z,100790.08
2019-05-02T16:37:51.615Z,100791.80
2019-05-02T16:40:22.248Z,100794.22
2019-05-02T16:42:49.286Z,100796.21
2019-05-02T16:45:19.486Z,100796.17
2019-05-02T16:47:49.622Z,100793.20
2019-05-02T16:50:22.731Z,100791.70
2019-05-02T16:52:53.080Z,100795.55
2019-05-02T16:55:26.638Z,100800.06
2019-05-02T16:57:56.816Z,100799.92
2019-05-02T17:00:26.550Z,100798.73
2019-05-02T17:02:55.876Z,100799.87
2019-05-02T17:05:25.268Z,100794.42
2019-05-02T17:08:18.607Z,100806.53
2019-05-02T17:10:59.371Z,100795.42
2019-05-02T17:13:34.219Z,100794.38
2019-05-02T17:16:06.883Z,100795.95
2019-05-02T17:18:32.626Z,100797.03
2019-05-02T17:21:02.125Z,100797.41
2019-05-02T17:23:32.871Z,100802.11
2019-05-02T17:26:02.107Z,100795.30
2019-05-02T17:28:31.841Z,100798.05
2019-05-02T17:31:01.331Z,100803.89
2019-05-02T17:33:32.318Z,100808.84
2019-05-02T17:36:02.195Z,100801.05
2019-05-02T17:38:31.539Z,100807.41
2019-05-02T17:41:06.470Z,100804.24
2019-05-02T17:43:32.948Z,100803.64
2019-05-02T17:46:07.417Z,100812.94
2019-05-02T17:48:34.810Z,100808.98
2019-05-02T17:51:22.842Z,100811.20
2019-05-02T17:53:52.403Z,100806.86
2019-05-02T18:00:18.230Z,100810.02
2019-05-02T18:03:52.032Z,100800.47
2019-05-02T18:06:32.783Z,100802.42
2019-05-02T18:08:56.455Z,100803.52
2019-05-02T18:11:29.737Z,100808.06
2019-05-02T18:14:18.960Z,100809.61
2019-05-02T18:16:41.980Z,100807.45
2019-05-02T18:22:34.655Z,100808.33
2019-05-02T18:25:26.711Z,100803.99
2019-05-02T18:28:02.282Z,100809.54
2019-05-02T18:30:34.897Z,100803.59
2019-05-02T18:33:07.093Z,100808.20
2019-05-02T18:35:37.336Z,100805.86
2019-05-02T18:39:42.592Z,100807.25
2019-05-02T18:42:09.158Z,100814.44
2019-05-02T18:44:53.053Z,100812.84
2019-05-02T18:47:24.683Z,100818.97
2019-05-02T18:50:04.387Z,100821.14
2019-05-02T18:52:36.325Z,100822.12
2019-05-02T18:54:58.646Z,100827.20
2019-05-02T18:57:29.616Z,100817.56
2019-05-02T18:59:59.205Z,100824.45
2019-05-02T19:06:21.960Z,100828.03
2019-05-02T19:08:52.213Z,100838.84
2019-05-02T19:11:22.168Z,100831.52
2019-05-02T19:13:54.890Z,100839.88
2019-05-02T19:16:28.464Z,100843.04
2019-05-02T19:18:57.432Z,100830.53
2019-05-02T19:21:42.850Z,100836.63
2019-05-02T19:24:13.093Z,100839.68
2019-05-02T19:26:49.268Z,100852.03
2019-05-02T19:29:27.727Z,100849.45
2019-05-02T19:31:59.096Z,100851.56
2019-05-02T19:34:28.401Z,100845.88
2019-05-02T19:37:02.548Z,100851.29
2019-05-02T19:39:32.082Z,100857.50
2019-05-02T19:42:01.807Z,100861.13
2019-05-02T19:44:33.947Z,100867.76
2019-05-02T19:47:02.674Z,100880.13
2019-05-02T19:49:32.885Z,100875.38
2019-05-02T19:52:02.423Z,100880.50
2019-05-02T19:54:39.339Z,100885.00
2019-05-02T19:57:03.811Z,100880.64
2019-05-02T19:59:33.146Z,100885.23
2019-05-02T20:02:06.050Z,100896.00
2019-05-02T20:04:37.779Z,100890.11
2019-05-02T20:07:04.729Z,100902.02
2019-05-02T20:09:38.047Z,100904.45
2019-05-02T20:12:08.245Z,100903.59
2019-05-02T20:14:38.254Z,100901.91
2019-05-02T20:17:10.019Z,100900.72
2019-05-02T20:19:42.208Z,100908.56
2019-05-02T20:22:17.072Z,100900.66
2019-05-02T20:25:05.702Z,100899.02
2019-05-02T20:27:35.067Z,100904.73
2019-05-02T20:30:05.083Z,100912.22
2019-05-02T20:32:34.337Z,100907.84
2019-05-02T20:35:03.657Z,100913.16
2019-05-02T20:37:32.959Z,100920.60
2019-05-02T20:40:02.748Z,100918.84
2019-05-02T20:46:32.646Z,100910.98
2019-05-02T20:49:32.136Z,100915.37
2019-05-02T21:06:41.089Z,100932.45
2019-05-02T21:13:32.761Z,100927.63
2019-05-02T21:16:02.175Z,100932.42
2019-05-02T21:18:34.192Z,100928.92
2019-05-02T21:21:32.435Z,100936.33
2019-05-02T21:24:32.761Z,100957.36
2019-05-02T21:29:49.466Z,100950.80
2019-05-02T21:32:33.862Z,100953.91
2019-05-02T21:35:33.160Z,100951.73
2019-05-02T21:38:32.722Z,100951.73
2019-05-02T21:46:36.673Z,100951.30
2019-05-02T21:49:29.870Z,100950.41
2019-05-02T21:52:17.138Z,100951.73
2019-05-02T21:57:43.042Z,100954.34
2019-05-02T22:00:16.836Z,100966.63
2019-05-02T22:03:32.475Z,100957.86
2019-05-02T22:06:32.301Z,100958.28
2019-05-02T22:09:32.345Z,100964.84
2019-05-02T22:12:32.073Z,100967.48
2019-05-02T22:15:02.325Z,100965.31
2019-05-02T22:17:32.244Z,100970.56
2019-05-02T22:20:01.958Z,100969.70
2019-05-02T22:22:31.746Z,100959.59
2019-05-02T22:25:32.777Z,100960.91
2019-05-02T22:28:02.102Z,100964.43
2019-05-02T22:30:34.100Z,100972.32
2019-05-02T22:33:03.661Z,100978.44
2019-05-02T22:35:32.923Z,100978.01
2019-05-02T22:38:11.718Z,100978.43
2019-05-02T22:40:42.035Z,100981.93
2019-05-02T22:43:13.019Z,100990.74
2019-05-02T22:45:42.324Z,100985.47
2019-05-02T22:48:14.204Z,100983.28
2019-05-02T22:50:42.659Z,100991.62
2019-05-02T22:53:12.017Z,100988.11
2019-05-02T22:55:43.097Z,100991.60
2019-05-02T22:58:12.365Z,100989.84
2019-05-02T23:00:41.738Z,100989.83
2019-05-02T23:03:12.543Z,100997.75
2019-05-02T23:05:42.275Z,101001.66
2019-05-02T23:08:12.584Z,101002.14
2019-05-02T23:10:41.919Z,100998.64
2019-05-02T23:13:12.946Z,101002.11
2019-05-02T23:15:42.715Z,101004.74
2019-05-02T23:18:12.232Z,100997.76
2019-05-02T23:20:42.171Z,101011.34
2019-05-02T23:23:12.509Z,101011.30
2019-05-02T23:25:55.202Z,101012.64
2019-05-02T23:28:25.204Z,101005.61
2019-05-02T23:30:54.443Z,101007.81
2019-05-02T23:33:25.387Z,101010.45
2019-05-02T23:35:54.630Z,101017.44
2019-05-02T23:38:24.125Z,101018.78
2019-05-02T23:40:53.396Z,101015.72
2019-05-02T23:43:22.718Z,101010.45
2019-05-02T23:45:51.956Z,101008.71
2019-05-02T23:48:22.111Z,101011.78
2019-05-02T23:50:52.099Z,101007.81
2019-05-02T23:53:22.112Z,101006.49
2019-05-02T23:55:51.447Z,101007.81
2019-05-02T23:58:22.638Z,101000.81
